Time;durP1;ratioP1;P1;durP2;ratioP2;P2;SDS_P1;SDS_P2;PMS_P1;PMS_P2;Temp;Humidity;BMP_temperature;BMP_pressure;BME280_temperature;BME280_humidity;BME280_pressure;Samples;Min_cycle;Max_cycle;Signal;HPM_P1;HPM_P2
2022/09/26 00:00:00;;;;;;;8.23;3.00;;;11.30;99.90;;;;;;5050665;28;20037;-45
2022/09/26 00:02:28;;;;;;;7.15;2.88;;;11.20;99.90;;;;;;5050615;28;20492;-45
2022/09/26 00:04:54;;;;;;;5.35;2.40;;;11.30;99.90;;;;;;5050389;28;20037;-45
2022/09/26 00:07:19;;;;;;;7.93;2.58;;;11.30;99.90;;;;;;5050752;28;20033;-46
2022/09/26 00:09:46;;;;;;;5.07;2.22;;;11.40;99.90;;;;;;5050333;28;20120;-43
2022/09/26 00:12:11;;;;;;;6.50;2.67;;;11.30;99.90;;;;;;5050414;28;20041;-45
2022/09/26 00:14:37;;;;;;;6.70;2.70;;;11.30;99.90;;;;;;5050492;28;20029;-42
2022/09/26 00:17:03;;;;;;;10.25;2.47;;;11.30;99.90;;;;;;5050562;28;20033;-45
2022/09/26 00:19:28;;;;;;;10.88;2.83;;;11.30;99.90;;;;;;5050527;28;20123;-45
2022/09/26 00:21:54;;;;;;;9.95;2.88;;;11.30;99.90;;;;;;5050372;28;20196;-44
2022/09/26 00:24:20;;;;;;;5.80;2.55;;;11.20;99.90;;;;;;5050717;28;20388;-47
2022/09/26 00:26:46;;;;;;;6.82;2.33;;;11.40;99.90;;;;;;5050682;28;20491;-46
2022/09/26 00:29:12;;;;;;;7.95;2.65;;;11.40;99.90;;;;;;5050618;28;20103;-43
2022/09/26 00:31:41;;;;;;;7.70;2.80;;;11.30;99.90;;;;;;5050721;28;20051;-46
2022/09/26 00:34:06;;;;;;;6.32;2.58;;;11.30;99.90;;;;;;5050559;28;20059;-44
2022/09/26 00:36:33;;;;;;;8.70;2.10;;;11.30;99.90;;;;;;5047992;28;20488;-43
2022/09/26 00:38:59;;;;;;;6.50;2.58;;;11.30;99.90;;;;;;5050288;28;20110;-45
2022/09/26 00:41:25;;;;;;;8.30;2.30;;;11.40;99.90;;;;;;5050084;28;20048;-44
2022/09/26 00:43:53;;;;;;;8.18;2.38;;;11.40;99.90;;;;;;5050617;28;20468;-42
2022/09/26 00:46:26;;;;;;;6.30;2.78;;;11.30;99.90;;;;;;5051785;28;20041;-45
2022/09/26 00:49:04;;;;;;;5.85;2.33;;;11.40;99.90;;;;;;5054313;28;20041;-43
2022/09/26 00:51:33;;;;;;;8.25;2.60;;;11.40;99.90;;;;;;5054080;28;20041;-43
2022/09/26 00:54:00;;;;;;;7.15;2.60;;;11.40;99.90;;;;;;5054054;28;20029;-45
2022/09/26 00:56:32;;;;;;;7.75;2.78;;;11.40;99.90;;;;;;5054344;28;20455;-43
2022/09/26 00:59:09;;;;;;;6.10;2.60;;;11.40;99.90;;;;;;5054479;28;20131;-45
2022/09/26 01:01:35;;;;;;;5.88;2.40;;;11.40;99.90;;;;;;5054082;28;20091;-45
2022/09/26 01:04:02;;;;;;;7.55;3.00;;;11.40;99.90;;;;;;5054035;28;20049;-45
2022/09/26 01:06:28;;;;;;;9.70;3.10;;;11.60;99.90;;;;;;5054079;28;20045;-45
2022/09/26 01:09:07;;;;;;;7.90;2.50;;;11.40;99.90;;;;;;5053701;28;20047;-44
2022/09/26 01:11:35;;;;;;;9.70;2.72;;;11.50;99.90;;;;;;5054330;28;20056;-48
2022/09/26 01:14:02;;;;;;;7.20;2.65;;;11.50;99.90;;;;;;5052500;28;20037;-43
2022/09/26 01:16:28;;;;;;;6.68;2.50;;;11.50;99.90;;;;;;5053653;28;20120;-45
2022/09/26 01:18:54;;;;;;;9.68;3.30;;;11.50;99.90;;;;;;5053933;28;20123;-45
2022/09/26 01:21:41;;;;;;;7.43;2.47;;;11.50;99.90;;;;;;5053470;28;20045;-42
2022/09/26 01:24:45;;;;;;;6.40;2.38;;;11.50;99.90;;;;;;5053789;28;20110;-45
2022/09/26 01:27:22;;;;;;;8.85;2.13;;;11.40;99.90;;;;;;5053269;28;20041;-46
2022/09/26 01:30:10;;;;;;;9.07;2.60;;;11.60;99.90;;;;;;5053332;28;20056;-44
2022/09/26 01:32:56;;;;;;;4.13;1.88;;;11.50;99.90;;;;;;5053601;28;20073;-45
2022/09/26 01:35:41;;;;;;;6.57;2.25;;;11.50;99.90;;;;;;5053332;28;20094;-43
2022/09/26 01:38:23;;;;;;;8.32;2.50;;;11.50;99.90;;;;;;5053062;28;20136;-44
2022/09/26 01:41:07;;;;;;;5.40;2.42;;;11.60;99.90;;;;;;5053247;28;20056;-44
2022/09/26 01:43:38;;;;;;;6.32;2.50;;;11.50;99.90;;;;;;5053210;28;20033;-42
2022/09/26 01:46:11;;;;;;;5.63;2.63;;;11.60;99.90;;;;;;5053005;28;20076;-43
2022/09/26 01:48:43;;;;;;;8.20;2.72;;;11.60;99.90;;;;;;5051769;28;20037;-48
2022/09/26 01:51:21;;;;;;;5.82;2.85;;;11.50;99.90;;;;;;5053419;28;20037;-42
2022/09/26 01:54:07;;;;;;;6.55;3.00;;;11.50;99.90;;;;;;5053326;28;20466;-45
2022/09/26 01:56:37;;;;;;;6.47;3.35;;;11.60;99.90;;;;;;5038603;28;20103;-44
2022/09/26 01:59:19;;;;;;;7.25;3.50;;;11.60;99.90;;;;;;5053293;28;20472;-43
2022/09/26 02:01:47;;;;;;;7.07;2.97;;;11.60;99.90;;;;;;5053070;28;20472;-44
2022/09/26 02:04:19;;;;;;;6.00;3.10;;;11.60;99.90;;;;;;5052648;28;20040;-44
2022/09/26 02:07:07;;;;;;;9.10;4.35;;;11.60;99.90;;;;;;5052863;28;20040;-43
2022/09/26 02:09:58;;;;;;;8.88;4.20;;;11.60;99.90;;;;;;5052295;28;20036;-43
2022/09/26 02:12:35;;;;;;;6.15;3.67;;;11.70;99.90;;;;;;5052972;28;20037;-44
2022/09/26 02:15:06;;;;;;;8.20;3.88;;;11.60;99.90;;;;;;5050128;28;20388;-45
2022/09/26 02:17:38;;;;;;;7.82;4.10;;;11.70;99.90;;;;;;5052864;28;20394;-43
2022/09/26 02:20:31;;;;;;;9.98;4.15;;;11.70;99.90;;;;;;5052831;28;20049;-44
2022/09/26 02:22:58;;;;;;;9.65;4.22;;;11.60;99.90;;;;;;5052795;28;20467;-43
2022/09/26 02:25:25;;;;;;;8.05;4.57;;;11.60;99.90;;;;;;5052596;28;20170;-42
2022/09/26 02:27:51;;;;;;;12.95;4.38;;;11.60;99.90;;;;;;5047193;28;20036;-44
2022/09/26 02:30:16;;;;;;;9.20;4.85;;;11.60;99.90;;;;;;5052509;28;20037;-44
2022/09/26 02:32:42;;;;;;;7.68;4.30;;;11.70;99.90;;;;;;5052777;28;20037;-45
2022/09/26 02:37:53;;;;;;;7.57;4.43;;;11.50;99.90;;;;;;5052140;28;20159;-43
2022/09/26 02:40:26;;;;;;;8.25;4.65;;;11.60;99.90;;;;;;5052046;28;20041;-44
2022/09/26 02:43:01;;;;;;;9.75;5.07;;;11.50;99.90;;;;;;5049970;28;20040;-44
2022/09/26 02:45:46;;;;;;;7.93;4.75;;;11.40;99.90;;;;;;5052285;28;20392;-45
2022/09/26 02:48:31;;;;;;;8.63;4.78;;;11.40;99.90;;;;;;5051112;28;20028;-44
2022/09/26 02:51:25;;;;;;;7.63;5.07;;;11.40;99.90;;;;;;5009823;28;20105;-43
2022/09/26 02:53:56;;;;;;;10.27;4.82;;;11.30;99.90;;;;;;5052074;28;20048;-45
2022/09/26 02:56:44;;;;;;;9.50;5.07;;;11.20;99.90;;;;;;5051965;28;20508;-43
2022/09/26 02:59:13;;;;;;;11.00;4.95;;;11.30;99.90;;;;;;5051953;28;20041;-44
2022/09/26 03:01:55;;;;;;;8.80;4.63;;;11.20;99.90;;;;;;5051846;28;20033;-44
2022/09/26 03:04:49;;;;;;;11.23;5.18;;;11.10;99.90;;;;;;5052227;28;20056;-44
2022/09/26 03:07:32;;;;;;;9.98;4.90;;;11.10;99.90;;;;;;5050999;28;20358;-43
2022/09/26 03:10:00;;;;;;;9.35;5.20;;;11.30;99.90;;;;;;5050253;28;20025;-44
2022/09/26 03:12:29;;;;;;;7.68;5.00;;;11.30;99.90;;;;;;5050618;28;20044;-42
2022/09/26 03:14:57;;;;;;;10.15;5.35;;;11.20;99.90;;;;;;5051448;28;20068;-42
2022/09/26 03:17:27;;;;;;;8.40;4.28;;;11.10;99.90;;;;;;5051661;28;20052;-45
2022/09/26 03:20:03;;;;;;;12.20;5.38;;;11.30;99.90;;;;;;5051685;28;20036;-44
2022/09/26 03:22:29;;;;;;;8.38;4.65;;;11.10;99.90;;;;;;5051073;28;20049;-44
2022/09/26 03:24:58;;;;;;;9.70;4.95;;;11.00;99.90;;;;;;5051310;28;20048;-43
2022/09/26 03:27:24;;;;;;;10.25;5.07;;;11.10;99.90;;;;;;5051162;28;20124;-47
2022/09/26 03:29:50;;;;;;;8.65;4.80;;;11.00;99.90;;;;;;5051298;28;20095;-45
2022/09/26 03:32:15;;;;;;;9.35;4.45;;;11.20;99.90;;;;;;5051175;28;20045;-44
2022/09/26 03:34:42;;;;;;;6.97;4.55;;;11.30;99.90;;;;;;5049722;28;20386;-43
2022/09/26 03:37:07;;;;;;;8.00;4.53;;;11.20;99.90;;;;;;5051057;28;20119;-42
2022/09/26 03:39:33;;;;;;;7.03;5.03;;;11.00;99.90;;;;;;5050942;28;20140;-43
2022/09/26 03:41:59;;;;;;;8.35;5.30;;;11.20;99.90;;;;;;5050894;28;20538;-42
2022/09/26 03:44:24;;;;;;;7.90;5.00;;;11.10;99.90;;;;;;5051023;28;20090;-44
2022/09/26 03:46:51;;;;;;;11.10;4.75;;;11.20;99.90;;;;;;5050977;28;20047;-43
2022/09/26 03:49:16;;;;;;;8.30;4.80;;;11.20;99.90;;;;;;5051172;28;20094;-46
2022/09/26 03:51:43;;;;;;;8.27;5.40;;;11.00;99.90;;;;;;5038555;28;20045;-42
2022/09/26 03:54:11;;;;;;;9.00;5.35;;;11.20;99.90;;;;;;5051041;28;20068;-43
2022/09/26 03:56:37;;;;;;;9.77;5.13;;;11.10;99.90;;;;;;5050744;28;20128;-47
2022/09/26 03:59:03;;;;;;;8.50;5.22;;;11.20;99.90;;;;;;5050943;28;20108;-44
2022/09/26 04:01:29;;;;;;;10.32;5.40;;;11.00;99.90;;;;;;5048517;28;20049;-44
2022/09/26 04:03:56;;;;;;;8.55;4.68;;;11.20;99.90;;;;;;5050818;28;20495;-45
2022/09/26 04:06:22;;;;;;;9.60;5.00;;;11.10;99.90;;;;;;5050516;28;20033;-42
2022/09/26 04:08:50;;;;;;;8.35;4.90;;;11.00;99.90;;;;;;5050194;28;20500;-44
2022/09/26 04:11:19;;;;;;;9.57;4.82;;;11.10;99.90;;;;;;5048205;28;20033;-44
2022/09/26 04:13:45;;;;;;;7.15;4.40;;;10.90;99.90;;;;;;5050451;28;20094;-42
2022/09/26 04:16:11;;;;;;;6.80;4.55;;;11.10;99.90;;;;;;5050675;28;20037;-44
2022/09/26 04:18:37;;;;;;;9.73;5.53;;;11.00;99.90;;;;;;5048483;28;20526;-43
2022/09/26 04:21:10;;;;;;;9.32;5.25;;;11.00;99.90;;;;;;5053583;28;20087;-43
2022/09/26 04:23:38;;;;;;;8.05;4.47;;;11.00;99.90;;;;;;5054662;28;20048;-42
2022/09/26 04:26:18;;;;;;;8.38;5.13;;;11.10;99.90;;;;;;5054454;28;20037;-45
2022/09/26 04:28:44;;;;;;;9.23;5.03;;;11.00;99.90;;;;;;5054828;28;20499;-44
2022/09/26 04:31:11;;;;;;;11.77;5.68;;;10.90;99.90;;;;;;5054780;28;20064;-43
2022/09/26 04:33:40;;;;;;;11.80;4.85;;;11.00;99.90;;;;;;5054755;28;20036;-42
2022/09/26 04:36:11;;;;;;;9.52;5.13;;;10.90;99.90;;;;;;5055069;28;20351;-42
2022/09/26 04:38:38;;;;;;;10.70;5.70;;;10.90;99.90;;;;;;5054301;28;20143;-43
2022/09/26 04:41:21;;;;;;;9.23;5.65;;;11.10;99.90;;;;;;5053128;28;20482;-43
2022/09/26 04:43:48;;;;;;;11.60;5.50;;;11.10;99.90;;;;;;5054580;28;20044;-46
2022/09/26 04:46:16;;;;;;;9.52;5.47;;;11.00;99.90;;;;;;5054255;28;20437;-45
2022/09/26 04:48:42;;;;;;;8.68;5.60;;;11.00;99.90;;;;;;5054333;28;20498;-43
2022/09/26 04:51:11;;;;;;;8.10;5.50;;;10.90;99.90;;;;;;5054476;28;20040;-44
2022/09/26 04:53:38;;;;;;;10.48;5.22;;;10.90;99.90;;;;;;5054059;28;20049;-45
2022/09/26 04:56:08;;;;;;;8.65;5.65;;;10.80;99.90;;;;;;5053219;28;20067;-44
2022/09/26 04:58:36;;;;;;;13.95;5.50;;;10.90;99.90;;;;;;5054374;28;20037;-45
2022/09/26 05:01:05;;;;;;;8.70;5.40;;;10.90;99.90;;;;;;5054005;28;20040;-44
2022/09/26 05:03:30;;;;;;;12.35;5.80;;;11.00;99.90;;;;;;5054413;28;20058;-42
2022/09/26 05:05:57;;;;;;;11.27;5.90;;;10.70;99.90;;;;;;5053681;28;20051;-45
2022/09/26 05:08:25;;;;;;;9.13;5.35;;;10.80;99.90;;;;;;5053762;28;20047;-45
2022/09/26 05:10:52;;;;;;;10.25;5.85;;;10.80;99.90;;;;;;5054069;28;20432;-42
2022/09/26 05:13:18;;;;;;;8.70;5.45;;;10.70;99.90;;;;;;5054003;28;20072;-44
2022/09/26 05:15:44;;;;;;;8.38;5.80;;;11.00;99.90;;;;;;5054053;28;20444;-42
2022/09/26 05:18:10;;;;;;;7.95;5.80;;;10.80;99.90;;;;;;5053913;28;20076;-44
2022/09/26 05:20:37;;;;;;;9.38;5.97;;;10.70;99.90;;;;;;5053722;28;20044;-45
2022/09/26 05:23:05;;;;;;;11.15;6.18;;;10.70;99.90;;;;;;5053572;28;20047;-44
2022/09/26 05:28:22;;;;;;;9.27;5.93;;;10.60;99.90;;;;;;5053522;28;20094;-41
2022/09/26 05:30:50;;;;;;;9.00;5.70;;;10.60;99.90;;;;;;5053532;28;20037;-44
2022/09/26 05:33:19;;;;;;;11.02;5.22;;;10.70;99.90;;;;;;5052883;28;20391;-42
2022/09/26 05:35:49;;;;;;;12.65;5.95;;;10.60;99.90;;;;;;5053548;28;20091;-43
2022/09/26 05:38:15;;;;;;;10.60;6.20;;;10.70;99.90;;;;;;5053525;28;20043;-42
2022/09/26 05:40:56;;;;;;;10.23;6.20;;;10.80;99.90;;;;;;5053091;28;20053;-44
2022/09/26 05:43:23;;;;;;;9.07;5.40;;;10.70;99.90;;;;;;5053311;28;20037;-42
2022/09/26 05:45:49;;;;;;;9.23;5.50;;;10.60;99.90;;;;;;5053047;28;20103;-43
2022/09/26 05:48:16;;;;;;;10.77;5.28;;;10.50;99.90;;;;;;5053335;28;20036;-42
2022/09/26 05:50:45;;;;;;;11.23;5.90;;;10.50;99.90;;;;;;5053360;28;20065;-44
2022/09/26 05:53:10;;;;;;;10.15;5.93;;;10.60;99.90;;;;;;5053219;28;20039;-44
2022/09/26 05:55:36;;;;;;;11.15;5.43;;;10.60;99.90;;;;;;5040130;28;20476;-43
2022/09/26 05:58:04;;;;;;;11.85;5.60;;;10.50;99.90;;;;;;5053219;28;20076;-44
2022/09/26 06:00:30;;;;;;;10.27;5.63;;;10.50;99.90;;;;;;5053076;28;20407;-44
2022/09/26 06:02:57;;;;;;;11.07;5.93;;;10.50;99.90;;;;;;5052842;28;20036;-44
2022/09/26 06:05:26;;;;;;;9.43;5.38;;;10.40;99.90;;;;;;5052938;28;20076;-44
2022/09/26 06:07:52;;;;;;;8.43;4.97;;;10.60;99.90;;;;;;5052962;28;20076;-42
2022/09/26 06:10:19;;;;;;;10.02;5.03;;;10.60;99.90;;;;;;5052421;28;20041;-46
2022/09/26 06:12:45;;;;;;;9.75;4.75;;;10.60;99.90;;;;;;5052753;28;20051;-44
2022/09/26 06:15:11;;;;;;;9.60;4.60;;;10.60;99.90;;;;;;5052619;28;20033;-44
2022/09/26 06:17:37;;;;;;;9.07;4.72;;;10.60;99.90;;;;;;5052735;28;20534;-45
2022/09/26 06:20:04;;;;;;;8.50;4.22;;;10.70;99.90;;;;;;5052767;28;20087;-44
2022/09/26 06:22:32;;;;;;;9.52;4.40;;;10.70;99.90;;;;;;5052344;28;20053;-42
2022/09/26 06:24:59;;;;;;;7.55;3.78;;;10.50;99.90;;;;;;5051853;28;20086;-47
2022/09/26 06:27:24;;;;;;;8.13;3.90;;;10.60;99.90;;;;;;5052552;28;20511;-44
2022/09/26 06:29:50;;;;;;;8.63;3.95;;;10.70;99.90;;;;;;5052602;28;20040;-42
2022/09/26 06:32:16;;;;;;;7.32;3.80;;;10.60;99.90;;;;;;5052461;28;20290;-42
2022/09/26 06:34:42;;;;;;;10.00;3.78;;;10.70;99.90;;;;;;5044586;28;20484;-43
2022/09/26 06:37:07;;;;;;;10.27;3.67;;;10.70;99.90;;;;;;5052046;28;20044;-44
2022/09/26 06:39:36;;;;;;;7.05;3.30;;;10.70;99.90;;;;;;5052047;28;20058;-43
2022/09/26 06:42:06;;;;;;;7.60;3.35;;;10.70;99.90;;;;;;5052787;28;20048;-47
2022/09/26 06:44:32;;;;;;;8.82;3.50;;;10.60;99.90;;;;;;5052251;28;20472;-46
2022/09/26 06:47:01;;;;;;;6.65;2.88;;;10.70;99.90;;;;;;5052258;28;20033;-44
2022/09/26 06:49:27;;;;;;;8.43;3.22;;;10.60;99.90;;;;;;5052238;28;20029;-44
2022/09/26 06:51:53;;;;;;;10.52;3.55;;;10.60;99.90;;;;;;5052133;28;20044;-45
2022/09/26 06:54:19;;;;;;;5.63;3.30;;;10.50;99.90;;;;;;5052164;28;20640;-44
2022/09/26 06:56:45;;;;;;;8.77;3.15;;;10.60;99.90;;;;;;5051868;28;20040;-43
2022/09/26 06:59:11;;;;;;;8.23;3.28;;;10.50;99.90;;;;;;5052017;28;20037;-45
2022/09/26 07:01:37;;;;;;;13.25;3.70;;;10.50;99.90;;;;;;5052058;28;20134;-46
2022/09/26 07:04:03;;;;;;;7.00;3.45;;;10.60;99.90;;;;;;5051684;28;20029;-44
2022/09/26 07:06:29;;;;;;;7.30;3.42;;;10.60;99.90;;;;;;5051584;28;20091;-44
2022/09/26 07:08:55;;;;;;;7.22;3.40;;;10.40;99.90;;;;;;5051420;28;20037;-44
2022/09/26 07:11:21;;;;;;;7.75;3.35;;;10.60;99.90;;;;;;5051788;28;20037;-44
2022/09/26 07:13:47;;;;;;;5.80;3.28;;;10.40;99.90;;;;;;5042675;28;20029;-44
2022/09/26 07:16:13;;;;;;;5.30;3.38;;;10.40;99.90;;;;;;5051565;28;20041;-43
2022/09/26 07:18:39;;;;;;;6.28;3.60;;;10.40;99.90;;;;;;5051891;28;20480;-42
2022/09/26 07:21:05;;;;;;;6.25;3.60;;;10.50;99.90;;;;;;5051226;28;20052;-44
2022/09/26 07:23:32;;;;;;;8.60;3.63;;;10.40;99.90;;;;;;5051361;28;20087;-44
2022/09/26 07:25:57;;;;;;;8.30;3.40;;;10.50;99.90;;;;;;5051451;28;20080;-44
2022/09/26 07:28:24;;;;;;;10.18;3.60;;;10.60;99.90;;;;;;5051542;28;20061;-45
2022/09/26 07:30:53;;;;;;;6.50;3.50;;;10.60;99.90;;;;;;5051563;28;20329;-44
2022/09/26 07:33:19;;;;;;;7.07;3.80;;;10.60;99.90;;;;;;5051113;28;20029;-43
2022/09/26 07:35:47;;;;;;;7.50;3.67;;;10.80;99.90;;;;;;5051016;28;20062;-44
2022/09/26 07:38:13;;;;;;;6.95;3.58;;;10.80;99.90;;;;;;5051218;28;20033;-43
2022/09/26 07:40:39;;;;;;;7.15;3.20;;;10.90;99.90;;;;;;5050832;28;20040;-44
2022/09/26 07:43:05;;;;;;;8.05;3.58;;;10.80;99.90;;;;;;5050378;28;20041;-47
2022/09/26 07:51:00;;;;;;;9.98;3.40;;;11.10;99.90;;;;;;5048580;28;19920;-43
2022/09/26 07:53:26;;;;;;;6.07;3.22;;;11.10;99.90;;;;;;5049329;28;20044;-42
2022/09/26 07:56:04;;;;;;;7.63;3.20;;;11.20;99.90;;;;;;5049289;28;20055;-45
2022/09/26 07:58:31;;;;;;;6.95;2.80;;;11.20;99.90;;;;;;5049490;28;20375;-43
2022/09/26 08:00:57;;;;;;;6.80;3.35;;;11.30;99.90;;;;;;5049249;28;20511;-42
2022/09/26 08:03:26;;;;;;;7.93;3.22;;;11.40;99.90;;;;;;5049444;28;20106;-43
2022/09/26 08:06:01;;;;;;;7.50;2.85;;;11.30;99.90;;;;;;5049279;28;20045;-44
2022/09/26 08:08:28;;;;;;;5.25;2.75;;;11.30;99.90;;;;;;5049218;28;20041;-46
2022/09/26 08:10:56;;;;;;;6.57;3.20;;;11.30;99.90;;;;;;5048824;28;20044;-47
2022/09/26 08:13:26;;;;;;;5.88;2.63;;;11.30;99.90;;;;;;5049044;28;20071;-45
2022/09/26 08:15:53;;;;;;;6.15;2.90;;;11.50;99.90;;;;;;5049483;28;20491;-43
2022/09/26 08:18:19;;;;;;;8.02;2.80;;;11.50;99.90;;;;;;5049210;28;20043;-43
2022/09/26 08:20:46;;;;;;;6.68;3.00;;;11.60;99.90;;;;;;5048843;28;20504;-45
2022/09/26 08:23:16;;;;;;;5.72;2.72;;;11.50;99.90;;;;;;5049649;28;20099;-45
2022/09/26 08:25:43;;;;;;;7.03;2.72;;;11.40;99.90;;;;;;5048917;28;20105;-44
2022/09/26 08:28:11;;;;;;;6.05;2.80;;;11.60;99.90;;;;;;5049380;28;20044;-44
2022/09/26 08:30:40;;;;;;;8.23;3.10;;;11.60;99.90;;;;;;5047246;28;20503;-43
2022/09/26 08:33:07;;;;;;;8.98;2.90;;;11.40;99.90;;;;;;5049023;28;21306;-42
2022/09/26 08:35:37;;;;;;;6.47;2.60;;;11.40;99.90;;;;;;5048578;28;20029;-44
2022/09/26 08:38:07;;;;;;;5.72;2.92;;;11.40;99.90;;;;;;5049359;28;20373;-42
2022/09/26 08:41:10;;;;;;;6.68;3.08;;;11.50;99.90;;;;;;5030160;28;20625;-46
2022/09/26 08:43:51;;;;;;;5.15;2.70;;;11.50;99.90;;;;;;5048942;28;20119;-44
2022/09/26 08:49:24;;;;;;;5.60;3.00;;;11.60;99.90;;;;;;5043450;28;20051;-45
2022/09/26 08:51:53;;;;;;;8.57;3.13;;;11.60;99.90;;;;;;5061331;28;20072;-45
2022/09/26 08:54:32;;;;;;;7.85;3.45;;;11.60;99.90;;;;;;5027435;28;20040;-44
2022/09/26 08:57:05;;;;;;;8.93;3.30;;;11.60;99.90;;;;;;5043662;28;20040;-44
2022/09/26 08:59:41;;;;;;;10.98;4.00;;;11.60;99.90;;;;;;5040974;28;20123;-44
2022/09/26 09:02:21;;;;;;;9.50;3.35;;;11.70;99.90;;;;;;5039643;28;20052;-44
2022/09/26 09:05:07;;;;;;;7.07;2.85;;;11.80;99.90;;;;;;5038726;28;20107;-46
2022/09/26 09:07:33;;;;;;;7.32;3.30;;;11.80;99.90;;;;;;5048003;28;20049;-44
2022/09/26 09:10:03;;;;;;;9.63;3.65;;;11.80;99.90;;;;;;5048696;28;20044;-43
2022/09/26 09:12:51;;;;;;;8.50;3.45;;;11.80;99.90;;;;;;5045624;28;20041;-46
2022/09/26 09:15:25;;;;;;;7.50;3.20;;;11.80;99.90;;;;;;5046152;28;20051;-44
2022/09/26 09:18:00;;;;;;;10.40;3.58;;;11.80;99.90;;;;;;5051682;28;20063;-44
2022/09/26 09:20:32;;;;;;;8.38;3.33;;;11.80;99.90;;;;;;5050876;28;20499;-44
2022/09/26 09:23:00;;;;;;;7.72;3.15;;;11.90;99.90;;;;;;5052593;28;20055;-45
2022/09/26 09:25:52;;;;;;;7.65;3.60;;;11.80;99.90;;;;;;5051190;28;20590;-45
2022/09/26 09:28:58;;;;;;;8.18;3.67;;;11.90;99.90;;;;;;5042724;28;20052;-43
2022/09/26 09:31:31;;;;;;;7.55;3.30;;;11.90;99.90;;;;;;5052414;28;20123;-43
2022/09/26 09:34:00;;;;;;;7.30;3.22;;;11.70;99.90;;;;;;5052870;28;20032;-44
2022/09/26 09:36:33;;;;;;;8.45;3.70;;;11.90;99.90;;;;;;5053061;28;20070;-43
2022/09/26 09:39:05;;;;;;;6.05;3.28;;;11.80;99.90;;;;;;5051769;28;20473;-44
2022/09/26 09:41:43;;;;;;;9.18;3.63;;;11.80;99.90;;;;;;5053145;28;20484;-43
2022/09/26 09:44:28;;;;;;;10.15;3.92;;;11.90;99.90;;;;;;5052942;28;20040;-45
2022/09/26 09:46:54;;;;;;;10.05;3.20;;;11.90;99.90;;;;;;5050538;28;20534;-43
2022/09/26 09:49:23;;;;;;;5.57;2.90;;;11.90;99.90;;;;;;5052814;28;20033;-47
2022/09/26 09:52:20;;;;;;;6.38;2.83;;;12.00;99.90;;;;;;5034656;28;20037;-46
2022/09/26 09:55:15;;;;;;;8.27;3.50;;;12.00;99.90;;;;;;5051856;28;20037;-44
2022/09/26 09:57:53;;;;;;;7.38;3.08;;;11.90;99.90;;;;;;5052777;28;20195;-43
2022/09/26 10:00:23;;;;;;;13.95;3.60;;;12.10;99.90;;;;;;5052456;28;20037;-43
2022/09/26 10:02:49;;;;;;;7.55;3.25;;;12.00;99.90;;;;;;5052492;28;20245;-43
2022/09/26 10:05:24;;;;;;;9.70;3.28;;;11.90;99.90;;;;;;5052525;28;20124;-42
2022/09/26 10:07:56;;;;;;;10.55;3.40;;;11.90;99.90;;;;;;5052253;28;20044;-46
2022/09/26 10:10:36;;;;;;;7.28;3.10;;;12.00;99.90;;;;;;5050841;28;20037;-44
2022/09/26 10:13:02;;;;;;;6.20;3.13;;;12.00;99.90;;;;;;5045609;28;20044;-46
2022/09/26 10:15:28;;;;;;;7.75;3.60;;;12.00;99.90;;;;;;5052527;28;20037;-44
2022/09/26 10:18:07;;;;;;;9.35;3.58;;;11.80;99.90;;;;;;5033789;28;20056;-42
2022/09/26 10:20:40;;;;;;;9.43;3.80;;;11.80;99.90;;;;;;5046209;28;20036;-44
2022/09/26 10:23:21;;;;;;;8.60;3.57;;;11.80;99.90;;;;;;5051842;28;20049;-43
2022/09/26 10:25:49;;;;;;;7.25;3.33;;;11.30;99.90;;;;;;5051556;28;20511;-44
2022/09/26 10:28:48;;;;;;;7.43;3.78;;;11.80;99.90;;;;;;5050444;28;20110;-44
2022/09/26 10:31:28;;;;;;;13.98;3.88;;;11.80;99.90;;;;;;5049956;28;20055;-43
2022/09/26 10:33:58;;;;;;;7.93;3.40;;;11.90;99.90;;;;;;5051510;28;20145;-43
2022/09/26 10:36:39;;;;;;;5.43;3.33;;;11.80;99.90;;;;;;5033057;28;20098;-44
2022/09/26 10:42:16;;;;;;;6.90;3.70;;;11.80;99.90;;;;;;5051090;28;20135;-44
2022/09/26 10:44:42;;;;;;;6.47;3.63;;;12.00;99.90;;;;;;5050603;28;20162;-42
2022/09/26 10:47:14;;;;;;;8.10;4.20;;;11.80;99.90;;;;;;5044291;28;20127;-44
2022/09/26 10:49:54;;;;;;;4.97;3.15;;;12.00;99.90;;;;;;5044169;28;20037;-43
2022/09/26 10:52:40;;;;;;;6.90;3.75;;;11.80;99.90;;;;;;5045030;28;20041;-42
2022/09/26 10:55:06;;;;;;;5.90;3.60;;;12.00;99.90;;;;;;5045271;28;20849;-44
2022/09/26 10:57:44;;;;;;;8.10;4.38;;;11.90;99.90;;;;;;5045684;28;20057;-44
2022/09/26 11:00:20;;;;;;;7.05;4.38;;;11.80;99.90;;;;;;5043204;28;20642;-44
2022/09/26 11:02:51;;;;;;;7.20;3.92;;;12.00;99.90;;;;;;5041881;28;20033;-45
2022/09/26 11:08:08;;;;;;;6.15;3.70;;;12.00;99.90;;;;;;5048702;28;20056;-43
2022/09/26 11:10:37;;;;;;;6.15;3.90;;;11.70;99.90;;;;;;5045582;28;20124;-43
2022/09/26 11:13:17;;;;;;;7.00;4.45;;;11.90;99.90;;;;;;5049666;28;20392;-43
2022/09/26 11:16:13;;;;;;;5.95;3.97;;;11.80;99.90;;;;;;5050304;28;20071;-44
2022/09/26 11:18:52;;;;;;;7.78;4.22;;;11.90;99.90;;;;;;5034308;28;20053;-46
2022/09/26 11:21:42;;;;;;;7.05;4.10;;;11.80;99.90;;;;;;5032378;28;20055;-44
2022/09/26 11:24:36;;;;;;;6.72;4.50;;;11.80;99.90;;;;;;5047539;28;20060;-48
2022/09/26 11:27:30;;;;;;;7.07;4.50;;;12.00;99.90;;;;;;5045182;28;20057;-43
2022/09/26 11:30:11;;;;;;;9.63;4.47;;;11.70;99.90;;;;;;5044519;28;20045;-44
2022/09/26 11:32:40;;;;;;;9.25;4.60;;;11.80;99.90;;;;;;5043671;28;20431;-46
2022/09/26 11:35:14;;;;;;;6.95;4.32;;;12.10;99.90;;;;;;5043102;28;20037;-45
2022/09/26 11:38:17;;;;;;;7.32;4.43;;;11.90;99.90;;;;;;5045989;28;20124;-46
2022/09/26 11:40:55;;;;;;;7.93;4.03;;;12.00;99.90;;;;;;5050025;28;20051;-44
2022/09/26 11:43:54;;;;;;;8.25;4.10;;;11.70;99.90;;;;;;5050850;28;20053;-45
2022/09/26 11:46:57;;;;;;;7.07;4.30;;;11.90;99.90;;;;;;5049883;28;20468;-44
2022/09/26 11:49:41;;;;;;;6.47;4.25;;;11.90;99.90;;;;;;5032387;28;20040;-44
2022/09/26 11:52:50;;;;;;;6.10;4.60;;;12.00;99.90;;;;;;5026879;28;20045;-48
2022/09/26 11:56:01;;;;;;;8.68;4.28;;;12.00;99.90;;;;;;5020063;28;20071;-44
2022/09/26 11:58:43;;;;;;;9.75;4.53;;;12.10;99.90;;;;;;5011414;28;20053;-44
2022/09/26 12:01:37;;;;;;;5.93;3.75;;;12.10;99.90;;;;;;5042168;28;20037;-43
2022/09/26 12:04:23;;;;;;;8.57;3.90;;;11.90;99.90;;;;;;5031162;28;20052;-42
2022/09/26 12:07:06;;;;;;;8.48;3.63;;;12.00;99.90;;;;;;5042886;28;20178;-43
2022/09/26 12:10:16;;;;;;;7.18;4.10;;;11.90;99.90;;;;;;5042244;28;20037;-44
2022/09/26 12:13:02;;;;;;;5.70;3.83;;;12.00;99.90;;;;;;4939872;28;20258;-44
2022/09/26 12:15:43;;;;;;;6.43;3.60;;;12.00;99.90;;;;;;4954434;28;20121;-45
2022/09/26 12:18:21;;;;;;;6.43;3.30;;;12.00;99.90;;;;;;5019898;28;20037;-44
2022/09/26 12:20:56;;;;;;;4.93;3.05;;;12.20;99.90;;;;;;5042110;28;20060;-42
2022/09/26 12:23:35;;;;;;;8.48;3.83;;;12.00;99.90;;;;;;5041846;28;20471;-44
2022/09/26 12:26:25;;;;;;;4.78;3.13;;;12.20;99.90;;;;;;5038434;28;20107;-44
2022/09/26 12:29:13;;;;;;;5.55;2.90;;;12.20;99.90;;;;;;5040356;28;20036;-45
2022/09/26 12:31:49;;;;;;;5.68;3.30;;;12.00;99.90;;;;;;5044574;28;20103;-44
2022/09/26 12:34:42;;;;;;;5.57;3.40;;;12.00;99.90;;;;;;5032265;28;20041;-44
2022/09/26 12:37:48;;;;;;;4.65;2.85;;;12.30;99.90;;;;;;5043080;28;20067;-47
2022/09/26 12:40:23;;;;;;;;;;;12.20;99.90;;;;;;5029214;28;20126;-44
2022/09/26 12:43:07;;;;;;;5.93;3.17;;;12.20;99.90;;;;;;5040449;28;19920;-44
2022/09/26 12:45:55;;;;;;;9.32;7.85;;;12.20;99.90;;;;;;5045624;28;20111;-45
2022/09/26 12:48:55;;;;;;;5.75;3.58;;;12.30;99.90;;;;;;5047100;28;20110;-42
2022/09/26 12:51:43;;;;;;;9.65;6.07;;;12.40;99.90;;;;;;5047597;28;20369;-44
2022/09/26 12:54:14;;;;;;;9.88;6.60;;;12.50;99.90;;;;;;5048459;28;20041;-44
2022/09/26 12:56:56;;;;;;;8.88;5.15;;;12.30;99.90;;;;;;5045147;28;20041;-45
2022/09/26 12:59:55;;;;;;;7.78;5.07;;;12.20;99.90;;;;;;5045172;28;20041;-47
2022/09/26 13:03:09;;;;;;;10.32;5.25;;;12.50;99.90;;;;;;5041597;28;20044;-46
2022/09/26 13:05:47;;;;;;;6.45;4.28;;;12.20;99.90;;;;;;5044230;28;20041;-43
2022/09/26 13:08:26;;;;;;;10.13;4.30;;;12.50;99.90;;;;;;5044913;28;20032;-46
2022/09/26 13:11:07;;;;;;;5.32;3.50;;;12.50;99.90;;;;;;5049166;28;20033;-44
2022/09/26 13:13:53;;;;;;;6.00;4.00;;;12.70;99.90;;;;;;5049003;28;20128;-42
2022/09/26 13:16:18;;;;;;;5.30;4.03;;;12.60;99.90;;;;;;5034618;28;20499;-43
2022/09/26 13:18:48;;;;;;;5.05;3.70;;;13.10;99.90;;;;;;5048619;28;20036;-44
2022/09/26 13:21:23;;;;;;;6.60;4.57;;;13.10;99.90;;;;;;5045577;28;20056;-43
2022/09/26 13:23:56;;;;;;;6.00;4.18;;;13.20;99.90;;;;;;5048032;28;20036;-45
2022/09/26 13:26:41;;;;;;;4.27;3.70;;;13.20;99.90;;;;;;5045802;28;20052;-45
2022/09/26 13:29:11;;;;;;;4.75;4.05;;;13.30;99.90;;;;;;5045183;28;20381;-45
2022/09/26 13:31:44;;;;;;;5.68;3.58;;;13.30;99.90;;;;;;5045975;28;20064;-44
2022/09/26 13:34:20;;;;;;;5.88;3.42;;;13.30;99.90;;;;;;5046424;28;20515;-45
2022/09/26 13:36:48;;;;;;;4.68;3.55;;;13.10;99.90;;;;;;5031280;28;20052;-45